| time (UTC) | temp C | wind direction | speed KPH | gust KPH | rain 1hr cm | rain 24hr cm | rain mn cm | humidity % | barometer mb |
| 20260502205340 | 15 | 190 | 0.0 | 3.2 | 0.00 | 0.03 | 0.03 | 84 | 1010.2 |
| 20260502204839 | 15 | 200 | 0.0 | 3.2 | 0.00 | 0.03 | 0.03 | 84 | 1010.3 |
| 20260502204619 | 15 | 198 | 0.0 | 3.2 | 0.00 | 0.03 | 0.03 | 84 | 1010.4 |
| 20260502203837 | 15 | 98 | 0.0 | 6.4 | 0.00 | 0.03 | 0.03 | 83 | 1010.5 |
| 20260502203615 | 15 | 92 | 0.0 | 6.4 | 0.00 | 0.03 | 0.03 | 83 | 1010.4 |
| 20260502202838 | 15 | 87 | 0.0 | 4.8 | 0.00 | 0.03 | 0.03 | 83 | 1010.5 |
| 20260502202335 | 15 | 38 | 0.0 | 6.4 | 0.00 | 0.03 | 0.03 | 82 | 1010.5 |
| 20260502201834 | 15 | 222 | 1.6 | 6.4 | 0.00 | 0.03 | 0.03 | 82 | 1010.7 |
| 20260502201333 | 15 | 187 | 1.6 | 6.4 | 0.00 | 0.03 | 0.03 | 82 | 1010.7 |
| 20260502200832 | 15 | 127 | 0.0 | 3.2 | 0.00 | 0.03 | 0.03 | 82 | 1010.5 |
| 20260502200333 | 15 | 110 | 0.0 | 3.2 | 0.00 | 0.03 | 0.03 | 82 | 1010.6 |
| 20260502195832 | 15 | 113 | 0.0 | 1.6 | 0.00 | 0.03 | 0.03 | 82 | 1010.6 |
| 20260502195333 | 15 | 113 | 0.0 | 1.6 | 0.00 | 0.03 | 0.03 | 82 | 1010.6 |
| 20260502194832 | 15 | 113 | 0.0 | 3.2 | 0.00 | 0.03 | 0.03 | 82 | 1010.6 |
| 20260502194334 | 15 | 113 | 0.0 | 3.2 | 0.00 | 0.03 | 0.03 | 82 | 1010.4 |
| 20260502193831 | 15 | 123 | 0.0 | 3.2 | 0.00 | 0.03 | 0.03 | 83 | 1010.6 |
| 20260502193331 | 15 | 184 | 0.0 | 3.2 | 0.00 | 0.03 | 0.03 | 83 | 1010.5 |
| 20260502192833 | 15 | 214 | 0.0 | 3.2 | 0.00 | 0.03 | 0.03 | 84 | 1010.5 |
| 20260502192333 | 15 | 121 | 0.0 | 4.8 | 0.00 | 0.03 | 0.03 | 86 | 1010.5 |
| 20260502191834 | 15 | 97 | 0.0 | 4.8 | 0.00 | 0.03 | 0.03 | 86 | 1010.5 |
| 20260502191330 | 15 | 108 | 0.0 | 3.2 | 0.00 | 0.03 | 0.03 | 87 | 1010.6 |
| 20260502190832 | 15 | 109 | 0.0 | 0.0 | 0.03 | 0.03 | 0.03 | 87 | 1010.5 |
| 20260502190330 | 15 | 109 | 0.0 | 0.0 | 0.03 | 0.03 | 0.03 | 87 | 1010.6 |
| 20260502185834 | 15 | 109 | 0.0 | 0.0 | 0.03 | 0.03 | 0.03 | 86 | 1010.6 |
| 20260502185337 | 15 | 109 | 0.0 | 0.0 | 0.03 | 0.03 | 0.03 | 86 | 1010.7 |
| 20260502184833 | 15 | 109 | 0.0 | 0.0 | 0.03 | 0.03 | 0.03 | 86 | 1010.8 |
| 20260502184326 | 15 | 109 | 0.0 | 0.0 | 0.03 | 0.03 | 0.03 | 86 | 1010.7 |
| 20260502184109 | 15 | 109 | 0.0 | 1.6 | 0.03 | 0.03 | 0.03 | 85 | 1010.8 |
| 20260502183322 | 16 | 109 | 0.0 | 1.6 | 0.03 | 0.03 | 0.03 | 85 | 1010.7 |
| 20260502182822 | 16 | 105 | 0.0 | 0.0 | 0.03 | 0.03 | 0.03 | 84 | 1010.8 |
| 20260502182324 | 16 | 105 | 0.0 | 0.0 | 0.03 | 0.03 | 0.03 | 84 | 1010.9 |
| 20260502181822 | 16 | 105 | 0.0 | 1.6 | 0.03 | 0.03 | 0.03 | 83 | 1010.9 |
| 20260502181322 | 16 | 105 | 0.0 | 1.6 | 0.03 | 0.03 | 0.00 | 82 | 1010.9 |
| 20260502180820 | 16 | 105 | 0.0 | 1.6 | 0.00 | 0.00 | 0.00 | 81 | 1011.1 |
| 20260502180318 | 16 | 105 | 0.0 | 0.0 | 0.00 | 0.00 | 0.00 | 80 | 1011.1 |
| 20260502170302 | 20 | 91 | 3.2 | 14.5 | 0.00 | 0.00 | 0.00 | 56 | 1010.7 |
| 20260502164044 | 21 | 40 | 3.2 | 14.5 | 0.00 | 0.00 | 0.00 | 53 | 1010.8 |
| 20260502163306 | 21 | 227 | 3.2 | 14.5 | 0.00 | 0.00 | 0.00 | 52 | 1010.8 |
| 20260502162801 | 21 | 198 | 1.6 | 14.5 | 0.00 | 0.00 | 0.00 | 50 | 1010.9 |
| 20260502162543 | 22 | 163 | 3.2 | 8.0 | 0.00 | 0.00 | 0.00 | 49 | 1010.9 |
| 20260502161803 | 22 | 91 | 1.6 | 8.0 | 0.00 | 0.00 | 0.00 | 46 | 1011.0 |
| 20260502161547 | 22 | 216 | 1.6 | 6.4 | 0.00 | 0.00 | 0.00 | 45 | 1011.1 |
| 20260502160804 | 22 | 148 | 1.6 | 4.8 | 0.00 | 0.00 | 0.00 | 45 | 1011.2 |
| 20260502160304 | 22 | 109 | 1.6 | 6.4 | 0.00 | 0.00 | 0.00 | 44 | 1011.2 |
| 20260502152305 | 24 | 112 | 1.6 | 4.8 | 0.00 | 0.00 | 0.00 | 40 | 1011.8 |
| 20260502151803 | 24 | 117 | 1.6 | 14.5 | 0.00 | 0.00 | 0.00 | 40 | 1012.0 |
| 20260502151306 | 24 | 167 | 1.6 | 14.5 | 0.00 | 0.00 | 0.00 | 40 | 1012.1 |
| 20260502150802 | 24 | 106 | 0.0 | 6.4 | 0.00 | 0.00 | 0.00 | 41 | 1012.1 |
| 20260502150310 | 24 | 109 | 0.0 | 4.8 | 0.00 | 0.00 | 0.00 | 40 | 1012.1 |
| 20260502130258 | 22 | 74 | 1.6 | 6.4 | 0.00 | 0.00 | 0.00 | 44 | 1013.9 |
| 20260502123753 | 22 | 98 | 1.6 | 9.7 | 0.00 | 0.00 | 0.00 | 45 | 1014.2 |
| 20260502123251 | 22 | 305 | 1.6 | 9.7 | 0.00 | 0.00 | 0.00 | 44 | 1014.3 |
| 20260502122751 | 22 | 256 | 1.6 | 8.0 | 0.00 | 0.00 | 0.00 | 43 | 1014.3 |
| 20260502122530 | 22 | 109 | 1.6 | 8.0 | 0.00 | 0.00 | 0.00 | 44 | 1014.3 |
| 20260502121746 | 22 | 54 | 1.6 | 6.4 | 0.00 | 0.00 | 0.00 | 44 | 1014.4 |
| 20260502121245 | 22 | 47 | 1.6 | 6.4 | 0.00 | 0.00 | 0.00 | 43 | 1014.6 |
| 20260502121023 | 22 | 82 | 3.2 | 9.7 | 0.00 | 0.00 | 0.00 | 43 | 1014.8 |
| 20260502120245 | 22 | 157 | 3.2 | 9.7 | 0.00 | 0.00 | 0.00 | 44 | 1014.9 |
| 20260502115743 | 22 | 160 | 1.6 | 8.0 | 0.00 | 0.00 | 0.00 | 45 | 1014.9 |
| 20260502115243 | 21 | 45 | 1.6 | 8.0 | 0.00 | 0.00 | 0.00 | 48 | 1015.0 |
| 20260502114745 | 21 | 281 | 1.6 | 8.0 | 0.00 | 0.00 | 0.00 | 48 | 1015.1 |
| 20260502114503 | 21 | 142 | 1.6 | 8.0 | 0.00 | 0.00 | 0.00 | 47 | 1015.0 |
| 20260502113737 | 21 | 72 | 1.6 | 8.0 | 0.00 | 0.00 | 0.00 | 49 | 1015.1 |
| 20260502113237 | 21 | 126 | 1.6 | 8.0 | 0.00 | 0.00 | 0.00 | 52 | 1015.3 |
| 20260502113017 | 20 | 147 | 3.2 | 8.0 | 0.00 | 0.00 | 0.00 | 51 | 1015.4 |
| 20260502112237 | 20 | 130 | 1.6 | 8.0 | 0.00 | 0.00 | 0.00 | 52 | 1015.3 |
| 20260502111737 | 21 | 194 | 1.6 | 8.0 | 0.00 | 0.00 | 0.00 | 51 | 1015.5 |
| 20260502111235 | 20 | 204 | 1.6 | 12.9 | 0.00 | 0.00 | 0.00 | 53 | 1015.5 |
| 20260502110736 | 20 | 108 | 1.6 | 12.9 | 0.00 | 0.00 | 0.00 | 53 | 1015.7 |
| 20260502110237 | 20 | 186 | 1.6 | 6.4 | 0.00 | 0.00 | 0.00 | 53 | 1015.6 |
| 20260502105739 | 20 | 229 | 3.2 | 9.7 | 0.00 | 0.00 | 0.00 | 53 | 1015.7 |
| 20260502105231 | 20 | 84 | 3.2 | 9.7 | 0.00 | 0.00 | 0.00 | 53 | 1015.7 |
| 20260502105014 | 20 | 166 | 1.6 | 6.4 | 0.00 | 0.00 | 0.00 | 54 | 1015.8 |
| 20260502104233 | 20 | 98 | 1.6 | 6.4 | 0.00 | 0.00 | 0.00 | 57 | 1015.8 |
| 20260502104012 | 20 | 171 | 1.6 | 6.4 | 0.00 | 0.00 | 0.00 | 57 | 1015.8 |
| 20260502103233 | 19 | 111 | 1.6 | 4.8 | 0.00 | 0.00 | 0.00 | 60 | 1015.9 |
| 20260502102730 | 18 | 264 | 1.6 | 4.8 | 0.00 | 0.00 | 0.00 | 60 | 1015.8 |
| 20260502102232 | 18 | 200 | 1.6 | 4.8 | 0.00 | 0.00 | 0.00 | 58 | 1015.9 |
| 20260502101731 | 18 | 145 | 1.6 | 4.8 | 0.00 | 0.00 | 0.00 | 60 | 1015.9 |
| 20260502101304 | 18 | 240 | 1.6 | 8.0 | 0.00 | 0.00 | 0.00 | 60 | 1016.0 |
| 20260502101253 | 18 | 173 | 1.6 | 6.4 | 0.00 | 0.00 | 0.00 | 60 | 1015.9 |
| 20260502100228 | 18 | 66 | 1.6 | 8.0 | 0.00 | 0.00 | 0.00 | 61 | 1016.0 |
| 20260502091206 | 17 | 321 | 0.0 | 3.2 | 0.00 | 0.00 | 0.00 | 69 | 1016.4 |
| 20260502090703 | 16 | 213 | 0.0 | 9.7 | 0.00 | 0.00 | 0.00 | 71 | 1016.5 |
| 20260502090206 | 16 | 213 | 1.6 | 9.7 | 0.00 | 0.00 | 0.00 | 71 | 1016.6 |
| 20260502071133 | 12 | 134 | 0.0 | 1.6 | 0.00 | 0.00 | 0.00 | 86 | 1017.0 |
| 20260502070910 | 12 | 135 | 0.0 | 4.8 | 0.00 | 0.00 | 0.00 | 87 | 1017.0 |
| 20260502070131 | 12 | 135 | 0.0 | 4.8 | 0.00 | 0.00 | 0.00 | 88 | 1017.0 |
| 20260502065632 | 12 | 146 | 0.0 | 4.8 | 0.00 | 0.00 | 0.00 | 88 | 1017.0 |
| 20260502065409 | 11 | 289 | 0.0 | 4.8 | 0.00 | 0.00 | 0.00 | 90 | 1017.0 |
| 20260502064906 | 11 | 289 | 0.0 | 4.8 | 0.00 | 0.00 | 0.00 | 90 | 1017.0 |
| 20260502064132 | 11 | 271 | 0.0 | 1.6 | 0.00 | 0.00 | 0.00 | 91 | 1017.0 |
| 20260502063633 | 11 | 271 | 0.0 | 3.2 | 0.00 | 0.00 | 0.00 | 91 | 1017.0 |
| 20260502063131 | 11 | 271 | 0.0 | 3.2 | 0.00 | 0.00 | 0.00 | 92 | 1017.0 |
| 20260502062624 | 10 | 271 | 0.0 | 3.2 | 0.00 | 0.00 | 0.00 | 92 | 1017.0 |
| 20260502062356 | 10 | 113 | 0.0 | 1.6 | 0.00 | 0.00 | 0.00 | 92 | 1017.0 |
| 20260502061612 | 10 | 113 | 0.0 | 1.6 | 0.00 | 0.00 | 0.00 | 92 | 1017.0 |
| 20260502061347 | 10 | 113 | 0.0 | 0.0 | 0.00 | 0.00 | 0.00 | 93 | 1016.9 |
| 20260502060607 | 10 | 113 | 0.0 | 1.6 | 0.00 | 0.00 | 0.00 | 93 | 1016.9 |
| 20260502060109 | 10 | 113 | 0.0 | 1.6 | 0.00 | 0.00 | 0.00 | 93 | 1016.8 |
| 20260502055605 | 10 | 113 | 0.0 | 1.6 | 0.00 | 0.00 | 0.00 | 93 | 1016.8 |
| 20260502055103 | 10 | 113 | 0.0 | 0.0 | 0.00 | 0.00 | 0.00 | 93 | 1016.8 |
| 20260502054605 | 10 | 113 | 0.0 | 0.0 | 0.00 | 0.00 | 0.00 | 93 | 1016.9 |
| 20260502054102 | 9 | 113 | 0.0 | 0.0 | 0.00 | 0.00 | 0.00 | 93 | 1016.9 |
| 20260502053839 | 9 | 115 | 0.0 | 0.0 | 0.00 | 0.00 | 0.00 | 93 | 1016.9 |
| 20260502053104 | 9 | 115 | 0.0 | 0.0 | 0.00 | 0.00 | 0.00 | 93 | 1016.9 |
| 20260502052604 | 9 | 114 | 0.0 | 1.6 | 0.00 | 0.00 | 0.00 | 93 | 1017.0 |
| 20260502052339 | 9 | 114 | 0.0 | 1.6 | 0.00 | 0.00 | 0.00 | 93 | 1017.0 |
| 20260502051603 | 8 | 114 | 0.0 | 1.6 | 0.00 | 0.00 | 0.00 | 92 | 1016.9 |
| 20260502051346 | 8 | 113 | 0.0 | 0.0 | 0.00 | 0.00 | 0.00 | 92 | 1016.9 |
| 20260502050603 | 8 | 113 | 0.0 | 0.0 | 0.00 | 0.00 | 0.00 | 92 | 1016.9 |
| 20260502045603 | 8 | 140 | 0.0 | 0.0 | 0.00 | 0.00 | 0.00 | 92 | 1016.8 |
| 20260502045102 | 8 | 140 | 0.0 | 0.0 | 0.00 | 0.00 | 0.00 | 92 | 1016.8 |
| 20260502044603 | 8 | 140 | 0.0 | 0.0 | 0.00 | 0.00 | 0.00 | 92 | 1016.8 |
| 20260502044102 | 8 | 140 | 0.0 | 0.0 | 0.00 | 0.00 | 0.00 | 92 | 1016.7 |
| 20260502043843 | 8 | 140 | 0.0 | 0.0 | 0.00 | 0.00 | 0.00 | 91 | 1016.7 |
| 20260502043105 | 8 | 140 | 0.0 | 0.0 | 0.00 | 0.00 | 0.00 | 91 | 1016.7 |
| 20260502042841 | 8 | 140 | 0.0 | 0.0 | 0.00 | 0.00 | 0.00 | 91 | 1016.7 |
| 20260502042103 | 8 | 140 | 0.0 | 0.0 | 0.00 | 0.00 | 0.00 | 91 | 1016.7 |
| 20260502041604 | 8 | 140 | 0.0 | 0.0 | 0.00 | 0.00 | 0.00 | 91 | 1016.7 |
| 20260502041102 | 9 | 140 | 0.0 | 0.0 | 0.00 | 0.00 | 0.00 | 91 | 1016.8 |
| 20260502040604 | 9 | 140 | 0.0 | 0.0 | 0.00 | 0.00 | 0.00 | 91 | 1016.8 |
| 20260502035604 | 9 | 132 | 0.0 | 1.6 | 0.00 | 0.00 | 0.00 | 90 | 1016.8 |
| 20260502035104 | 9 | 132 | 0.0 | 0.0 | 0.00 | 0.00 | 0.00 | 90 | 1016.9 |
| 20260502034603 | 9 | 132 | 0.0 | 0.0 | 0.00 | 0.00 | 0.00 | 90 | 1016.9 |
| 20260502034104 | 9 | 132 | 0.0 | 0.0 | 0.00 | 0.00 | 0.00 | 90 | 1017.0 |
| 20260502033841 | 9 | 132 | 0.0 | 0.0 | 0.00 | 0.00 | 0.00 | 89 | 1017.0 |
| 20260502033102 | 9 | 132 | 0.0 | 0.0 | 0.00 | 0.00 | 0.00 | 89 | 1017.0 |
| 20260502032605 | 9 | 132 | 0.0 | 0.0 | 0.00 | 0.00 | 0.00 | 89 | 1016.9 |
| 20260502032103 | 9 | 132 | 0.0 | 0.0 | 0.00 | 0.00 | 0.00 | 88 | 1017.0 |
| 20260502031602 | 9 | 132 | 0.0 | 0.0 | 0.00 | 0.00 | 0.00 | 88 | 1017.0 |
| 20260502031104 | 10 | 132 | 0.0 | 0.0 | 0.00 | 0.00 | 0.00 | 88 | 1017.0 |
| 20260502030603 | 10 | 132 | 0.0 | 0.0 | 0.00 | 0.00 | 0.00 | 88 | 1016.9 |
| 20260502030104 | 10 | 132 | 0.0 | 0.0 | 0.00 | 0.00 | 0.00 | 87 | 1016.9 |
| 20260502025604 | 10 | 132 | 0.0 | 0.0 | 0.00 | 0.00 | 0.00 | 87 | 1016.9 |
| 20260502025103 | 10 | 132 | 0.0 | 0.0 | 0.00 | 0.00 | 0.00 | 87 | 1016.9 |
| 20260502024839 | 10 | 132 | 0.0 | 0.0 | 0.00 | 0.00 | 0.00 | 87 | 1016.9 |
| 20260502024120 | 10 | 132 | 0.0 | 0.0 | 0.00 | 0.00 | 0.00 | 86 | 1016.9 |
| 20260502024112 | 10 | 132 | 0.0 | 0.0 | 0.00 | 0.00 | 0.00 | 87 | 1016.9 |
| 20260502023103 | 10 | 132 | 0.0 | 0.0 | 0.00 | 0.00 | 0.00 | 86 | 1016.9 |
| 20260502022603 | 10 | 132 | 0.0 | 0.0 | 0.00 | 0.00 | 0.00 | 86 | 1016.9 |
| 20260502022105 | 10 | 132 | 0.0 | 0.0 | 0.00 | 0.00 | 0.00 | 85 | 1016.9 |
| 20260502021602 | 10 | 132 | 0.0 | 0.0 | 0.00 | 0.00 | 0.00 | 85 | 1016.9 |
| 20260502021340 | 10 | 132 | 0.0 | 0.0 | 0.00 | 0.00 | 0.00 | 85 | 1016.9 |
| 20260502020601 | 11 | 132 | 0.0 | 0.0 | 0.00 | 0.00 | 0.00 | 84 | 1017.0 |
| 20260502020105 | 11 | 132 | 0.0 | 0.0 | 0.00 | 0.00 | 0.00 | 84 | 1017.1 |
| 20260502015837 | 11 | 132 | 0.0 | 0.0 | 0.00 | 0.00 | 0.00 | 84 | 1017.1 |
| 20260502015102 | 11 | 132 | 0.0 | 0.0 | 0.00 | 0.00 | 0.00 | 84 | 1017.1 |
| 20260502014603 | 11 | 132 | 0.0 | 0.0 | 0.00 | 0.00 | 0.00 | 83 | 1017.2 |
| 20260502014103 | 11 | 132 | 0.0 | 0.0 | 0.00 | 0.00 | 0.00 | 83 | 1017.2 |
| 20260502013842 | 11 | 132 | 0.0 | 0.0 | 0.00 | 0.00 | 0.00 | 82 | 1017.3 |
| 20260502013105 | 11 | 132 | 0.0 | 0.0 | 0.00 | 0.00 | 0.00 | 82 | 1017.3 |
| 20260502012603 | 11 | 132 | 0.0 | 0.0 | 0.00 | 0.00 | 0.00 | 81 | 1017.4 |
| 20260502012103 | 12 | 132 | 0.0 | 0.0 | 0.00 | 0.00 | 0.00 | 81 | 1017.4 |
| 20260502011603 | 12 | 132 | 0.0 | 0.0 | 0.00 | 0.00 | 0.00 | 80 | 1017.5 |
| 20260502011339 | 12 | 132 | 0.0 | 0.0 | 0.00 | 0.00 | 0.00 | 80 | 1017.6 |
| 20260502010838 | 12 | 133 | 0.0 | 0.0 | 0.00 | 0.00 | 0.00 | 79 | 1017.6 |
| 20260502005603 | 12 | 132 | 0.0 | 0.0 | 0.00 | 0.00 | 0.00 | 78 | 1017.8 |
| 20260502005102 | 12 | 132 | 0.0 | 0.0 | 0.00 | 0.00 | 0.00 | 77 | 1017.9 |
| 20260502004603 | 13 | 132 | 0.0 | 0.0 | 0.00 | 0.00 | 0.00 | 77 | 1017.9 |
| 20260502004102 | 13 | 132 | 0.0 | 0.0 | 0.00 | 0.00 | 0.00 | 76 | 1017.9 |
| 20260502003605 | 13 | 133 | 0.0 | 0.0 | 0.00 | 0.00 | 0.00 | 76 | 1018.0 |
| 20260502003342 | 13 | 133 | 0.0 | 1.6 | 0.00 | 0.00 | 0.00 | 76 | 1018.1 |
| 20260502002601 | 13 | 131 | 0.0 | 1.6 | 0.00 | 0.00 | 0.00 | 76 | 1018.1 |
| 20260502002101 | 13 | 132 | 0.0 | 1.6 | 0.00 | 0.00 | 0.00 | 76 | 1018.1 |
| 20260502001604 | 13 | 132 | 0.0 | 1.6 | 0.00 | 0.00 | 0.00 | 76 | 1018.1 |
| 20260502001409 | 14 | 125 | 0.0 | 1.6 | 0.00 | 0.00 | 0.00 | 77 | 1018.1 |
| 20260502001403 | 13 | 125 | 0.0 | 0.0 | 0.00 | 0.00 | 0.00 | 77 | 1018.0 |
| 20260501235602 | 14 | 126 | 0.0 | 3.2 | 0.00 | 0.00 | 0.00 | 78 | 1018.1 |
| 20260501235102 | 14 | 170 | 0.0 | 3.2 | 0.00 | 0.00 | 0.00 | 78 | 1018.1 |
| 20260501234605 | 14 | 162 | 0.0 | 1.6 | 0.00 | 0.00 | 0.00 | 79 | 1018.1 |
| 20260501234059 | 14 | 162 | 0.0 | 4.8 | 0.00 | 0.00 | 0.00 | 79 | 1018.2 |
| 20260501233553 | 14 | 162 | 0.0 | 4.8 | 0.00 | 0.00 | 0.00 | 79 | 1018.1 |
| 20260501233331 | 14 | 301 | 0.0 | 1.6 | 0.00 | 0.00 | 0.00 | 78 | 1018.2 |
| 20260501232542 | 15 | 301 | 0.0 | 1.6 | 0.00 | 0.00 | 0.00 | 78 | 1018.1 |
| 20260501232040 | 15 | 301 | 0.0 | 1.6 | 0.00 | 0.00 | 0.00 | 78 | 1018.2 |
| 20260501231538 | 15 | 321 | 0.0 | 1.6 | 0.00 | 0.00 | 0.00 | 78 | 1018.2 |
| 20260501231039 | 15 | 321 | 0.0 | 0.0 | 0.00 | 0.00 | 0.00 | 77 | 1018.2 |
| 20260501230534 | 15 | 321 | 0.0 | 3.2 | 0.00 | 0.00 | 0.00 | 77 | 1018.2 |
| 20260501230033 | 15 | 321 | 0.0 | 3.2 | 0.00 | 0.00 | 0.00 | 77 | 1018.3 |
| 20260501225532 | 15 | 321 | 0.0 | 3.2 | 0.00 | 0.00 | 0.00 | 76 | 1018.2 |
| 20260501225033 | 16 | 79 | 0.0 | 3.2 | 0.00 | 0.00 | 0.00 | 76 | 1018.2 |
| 20260501224532 | 16 | 79 | 0.0 | 3.2 | 0.00 | 0.00 | 0.00 | 76 | 1018.2 |
| 20260501224033 | 16 | 75 | 0.0 | 1.6 | 0.00 | 0.00 | 0.00 | 76 | 1018.2 |
| 20260501223811 | 16 | 74 | 0.0 | 3.2 | 0.00 | 0.00 | 0.00 | 76 | 1018.2 |
| 20260501223033 | 16 | 74 | 0.0 | 3.2 | 0.00 | 0.00 | 0.00 | 75 | 1018.2 |
| 20260501222533 | 16 | 67 | 0.0 | 1.6 | 0.00 | 0.00 | 0.00 | 75 | 1018.1 |
| 20260501222032 | 16 | 67 | 0.0 | 1.6 | 0.00 | 0.00 | 0.00 | 75 | 1018.1 |
| 20260501221532 | 16 | 67 | 0.0 | 0.0 | 0.00 | 0.00 | 0.00 | 75 | 1018.1 |
| 20260501221313 | 16 | 67 | 0.0 | 0.0 | 0.00 | 0.00 | 0.00 | 75 | 1018.1 |
| 20260501220531 | 16 | 67 | 0.0 | 0.0 | 0.00 | 0.00 | 0.00 | 74 | 1018.1 |
| 20260501220033 | 17 | 67 | 0.0 | 0.0 | 0.00 | 0.00 | 0.00 | 74 | 1018.1 |
| 20260501215531 | 17 | 67 | 0.0 | 0.0 | 0.00 | 0.00 | 0.00 | 74 | 1018.1 |
| 20260501215031 | 17 | 67 | 0.0 | 0.0 | 0.00 | 0.00 | 0.00 | 73 | 1018.2 |
| 20260501214530 | 17 | 68 | 0.0 | 0.0 | 0.00 | 0.00 | 0.00 | 73 | 1018.2 |
| 20260501214032 | 17 | 67 | 0.0 | 1.6 | 0.00 | 0.00 | 0.00 | 73 | 1018.1 |
| 20260501213532 | 17 | 67 | 0.0 | 1.6 | 0.00 | 0.00 | 0.00 | 72 | 1018.1 |
| 20260501213032 | 17 | 165 | 0.0 | 6.4 | 0.00 | 0.00 | 0.00 | 72 | 1018.1 |
| 20260501212806 | 17 | 165 | 0.0 | 6.4 | 0.00 | 0.00 | 0.00 | 72 | 1018.2 |
| 20260501212032 | 17 | 109 | 0.0 | 3.2 | 0.00 | 0.00 | 0.00 | 72 | 1018.1 |
| 20260501211808 | 17 | 5 | 0.0 | 1.6 | 0.00 | 0.00 | 0.00 | 73 | 1018.1 |
| 20260501211032 | 17 | 5 | 0.0 | 1.6 | 0.00 | 0.00 | 0.00 | 73 | 1018.1 |
| 20260501210809 | 17 | 325 | 0.0 | 1.6 | 0.00 | 0.00 | 0.00 | 73 | 1018.1 |
| 20260501210034 | 17 | 325 | 0.0 | 1.6 | 0.00 | 0.00 | 0.00 | 72 | 1018.0 |